Time;durP1;ratioP1;P1;durP2;ratioP2;P2;SDS_P1;SDS_P2;PMS_P1;PMS_P2;Temp;Humidity;BMP_temperature;BMP_pressure;BME280_temperature;BME280_humidity;BME280_pressure;Samples;Min_cycle;Max_cycle;Signal;HPM_P1;HPM_P2
2022/12/17 13:06:09;;;;;;;;;;;;;;;19.76;30.25;102553.09;5069764;28;20032;-67
2022/12/17 13:08:34;;;;;;;6.32;5.00;;;;;;;19.82;30.32;102557.81;5076367;28;19923;-67
2022/12/17 13:11:10;;;;;;;6.95;4.68;;;;;;;19.94;30.02;102555.91;5077496;28;20722;-68
2022/12/17 13:13:54;;;;;;;6.00;4.70;;;;;;;20.24;29.62;102550.44;5074494;28;21987;-67
2022/12/17 13:16:38;;;;;;;6.35;4.82;;;;;;;20.37;29.45;102543.06;5071056;28;20044;-67
2022/12/17 13:19:34;;;;;;;5.43;4.03;;;;;;;20.35;29.62;102546.81;5068817;28;20039;-67
2022/12/17 13:22:15;;;;;;;5.22;4.50;;;;;;;20.26;29.82;102551.13;5075830;28;20505;-67
2022/12/17 13:24:42;;;;;;;7.55;4.80;;;;;;;20.23;29.70;102554.06;5071675;28;20064;-68
2022/12/17 13:27:29;;;;;;;5.47;4.15;;;;;;;20.15;29.92;102557.41;5073530;28;20536;-68
2022/12/17 13:29:54;;;;;;;6.35;4.55;;;;;;;20.04;29.91;102562.84;5065851;28;20657;-68
2022/12/17 13:32:29;;;;;;;6.15;4.65;;;;;;;20.12;29.55;102567.44;5069347;28;20031;-68
2022/12/17 13:35:24;;;;;;;6.53;4.43;;;;;;;20.42;29.37;102574.41;5073648;28;20032;-66
2022/12/17 13:38:14;;;;;;;6.40;4.80;;;;;;;20.49;29.18;102560.47;5054719;28;20131;-70
2022/12/17 13:41:15;;;;;;;6.82;4.55;;;;;;;20.99;28.63;102568.13;5058915;28;20159;-69
2022/12/17 13:43:52;;;;;;;6.03;4.50;;;;;;;21.57;28.24;102554.63;5069829;28;20982;-68
2022/12/17 13:46:21;;;;;;;6.00;4.50;;;;;;;22.07;27.34;102556.75;5077253;28;20032;-67
2022/12/17 13:49:03;;;;;;;5.90;4.53;;;;;;;22.42;26.96;102555.03;5074581;28;20044;-68
2022/12/17 13:51:32;;;;;;;4.95;4.07;;;;;;;22.41;27.19;102556.03;5069948;28;20031;-68
2022/12/17 13:54:03;;;;;;;4.75;3.85;;;;;;;22.27;27.26;102555.63;5071146;28;20049;-68
2022/12/17 13:56:34;;;;;;;5.68;4.28;;;;;;;22.15;27.68;102551.53;5075471;28;20057;-68
2022/12/17 13:59:02;;;;;;;5.38;4.43;;;;;;;22.06;27.44;102552.44;5077801;28;20067;-68
2022/12/17 14:01:28;;;;;;;5.53;3.70;;;;;;;21.83;28.12;102561.81;5075156;28;20164;-68
2022/12/17 14:03:59;;;;;;;5.50;4.35;;;;;;;21.67;27.98;102559.84;5070246;28;20410;-67
2022/12/17 14:06:31;;;;;;;6.93;4.47;;;;;;;21.47;28.57;102561.78;5079448;28;20039;-69
2022/12/17 14:08:58;;;;;;;5.05;4.00;;;;;;;21.35;28.61;102563.78;5074991;28;20051;-69
2022/12/17 14:14:30;;;;;;;5.88;4.40;;;;;;;21.37;28.82;102559.22;5079012;28;20036;-68
2022/12/17 14:16:56;;;;;;;5.22;4.03;;;;;;;21.97;28.32;102559.47;5080768;28;20040;-67
2022/12/17 14:19:26;;;;;;;5.32;3.97;;;;;;;22.09;27.82;102554.81;5071915;28;20059;-67
2022/12/17 14:21:51;;;;;;;5.22;4.25;;;;;;;22.00;27.95;102564.47;5077121;28;21973;-68
2022/12/17 14:24:22;;;;;;;5.72;4.13;;;;;;;21.81;28.13;102561.16;5080068;28;20041;-68
2022/12/17 14:26:58;;;;;;;10.50;7.40;;;;;;;21.85;27.32;102573.13;5073307;28;20514;-70
2022/12/17 14:29:26;;;;;;;9.30;5.88;;;;;;;21.90;28.03;102578.78;5045053;28;20034;-64
2022/12/17 14:31:54;;;;;;;6.68;5.32;;;;;;;21.76;27.89;102577.53;5076967;28;20101;-64
2022/12/17 14:34:21;;;;;;;7.82;5.60;;;;;;;21.70;28.18;102581.59;5071739;28;20070;-64
2022/12/17 14:36:53;;;;;;;7.28;5.40;;;;;;;21.55;28.18;102588.41;5079586;28;20040;-66
2022/12/17 14:39:25;;;;;;;6.43;5.25;;;;;;;21.35;28.50;102585.00;5072452;28;20036;-65
2022/12/17 14:44:49;;;;;;;7.72;6.20;;;;;;;21.08;28.60;102592.91;5087340;28;20575;-66
2022/12/17 14:47:24;;;;;;;8.10;5.55;;;;;;;21.04;28.85;102591.53;5076113;28;20647;-69
2022/12/17 14:50:01;;;;;;;9.25;5.30;;;;;;;21.40;28.41;102573.97;5072925;28;20036;-65
2022/12/17 14:52:34;;;;;;;8.15;5.78;;;;;;;21.90;27.45;102584.09;5073386;28;20123;-65
2022/12/17 14:54:59;;;;;;;8.63;6.07;;;;;;;22.39;26.69;102580.09;5077408;28;20371;-65
2022/12/17 14:57:25;;;;;;;8.50;5.40;;;;;;;22.45;26.96;102587.44;5062340;28;20923;-65
2022/12/17 14:59:51;;;;;;;7.57;5.60;;;;;;;22.41;26.70;102601.16;5064377;28;20036;-66
2022/12/17 15:02:29;;;;;;;6.88;5.65;;;;;;;22.18;26.94;102593.69;5075089;28;20056;-65
2022/12/17 15:05:00;;;;;;;8.32;5.88;;;;;;;21.90;27.22;102598.22;5073524;28;20086;-65
2022/12/17 15:07:28;;;;;;;8.75;6.55;;;;;;;21.82;27.41;102599.94;5073395;28;20039;-66
2022/12/17 15:09:55;;;;;;;7.43;5.75;;;;;;;21.68;27.43;102604.75;5070215;28;20036;-65
2022/12/17 15:12:22;;;;;;;7.00;5.55;;;;;;;21.48;27.99;102597.06;5063845;28;20067;-67
2022/12/17 15:14:47;;;;;;;7.45;5.55;;;;;;;21.34;28.00;102583.31;5079377;28;20582;-66
2022/12/17 15:17:14;;;;;;;7.45;5.75;;;;;;;21.25;28.20;102601.94;5070009;28;20036;-67
2022/12/17 15:19:40;;;;;;;7.72;6.03;;;;;;;21.12;28.41;102595.13;5075239;28;20188;-64
2022/12/17 15:22:29;;;;;;;9.18;6.00;;;;;;;21.06;28.65;102605.47;5076443;28;20047;-66
2022/12/17 15:24:55;;;;;;;8.95;5.95;;;;;;;20.98;28.56;102610.63;5074727;28;20405;-67
2022/12/17 15:27:20;;;;;;;8.25;6.35;;;;;;;20.91;28.53;102615.69;5056467;28;20075;-65
2022/12/17 15:29:46;;;;;;;8.43;6.30;;;;;;;20.88;28.92;102615.97;5061615;28;21654;-65
2022/12/17 15:32:18;;;;;;;8.90;6.53;;;;;;;20.79;28.77;102615.00;5066530;28;20344;-65
2022/12/17 15:34:43;;;;;;;7.57;5.95;;;;;;;20.74;28.80;102616.44;5072190;28;20121;-66
2022/12/17 15:37:09;;;;;;;8.32;6.03;;;;;;;20.70;28.97;102626.47;5070529;28;20163;-64
2022/12/17 15:39:34;;;;;;;6.75;5.43;;;;;;;20.67;28.97;102624.09;5088290;27;21723;-66
2022/12/17 15:44:44;;;;;;;8.05;6.43;;;;;;;20.58;28.92;102640.00;5059594;28;20052;-66
2022/12/17 15:47:10;;;;;;;8.75;6.55;;;;;;;20.50;28.96;102627.47;5078586;28;20089;-66
2022/12/17 15:49:35;;;;;;;9.43;6.78;;;;;;;20.47;29.32;102625.13;5070290;28;20043;-66
2022/12/17 15:52:01;;;;;;;9.20;6.45;;;;;;;20.66;28.77;102630.38;5068290;28;20482;-66
2022/12/17 15:54:26;;;;;;;8.13;6.07;;;;;;;21.09;28.20;102621.91;5076935;28;20040;-65
2022/12/17 15:56:53;;;;;;;7.95;6.40;;;;;;;21.54;27.57;102620.31;5070940;28;20592;-65
2022/12/17 15:59:19;;;;;;;8.25;5.97;;;;;;;21.77;27.15;102615.47;5021126;28;20486;-64
2022/12/17 16:01:45;;;;;;;7.95;6.30;;;;;;;21.72;27.21;102621.19;5075370;28;20047;-66
2022/12/17 16:04:10;;;;;;;8.63;6.38;;;;;;;21.53;27.48;102631.91;5071406;28;20044;-65
2022/12/17 16:06:36;;;;;;;7.70;5.90;;;;;;;21.43;27.55;102634.63;5068603;28;20048;-64
2022/12/17 16:09:01;;;;;;;10.32;6.55;;;;;;;21.31;27.77;102639.28;5068443;28;20039;-67
2022/12/17 16:11:27;;;;;;;9.65;7.10;;;;;;;21.19;27.92;102639.59;5067660;28;20024;-66
2022/12/17 16:13:54;;;;;;;7.78;6.15;;;;;;;21.11;28.08;102648.25;5060103;28;20044;-65
2022/12/17 16:16:19;;;;;;;9.13;6.68;;;;;;;21.02;28.27;102657.06;5067734;28;20088;-65
2022/12/17 16:18:45;;;;;;;10.07;6.60;;;;;;;20.97;28.33;102652.19;5072461;28;20032;-63
2022/12/17 16:21:10;;;;;;;8.13;6.03;;;;;;;20.89;28.37;102652.06;5069113;28;20070;-66
2022/12/17 16:23:36;;;;;;;9.50;6.32;;;;;;;20.76;28.70;102659.47;5070906;28;20099;-64
2022/12/17 16:26:04;;;;;;;8.07;6.07;;;;;;;20.73;28.78;102659.75;5069782;28;20056;-64
2022/12/17 16:28:30;;;;;;;10.35;6.40;;;;;;;20.70;28.96;102662.69;5053181;28;20032;-66
2022/12/17 16:31:10;;;;;;;9.00;6.45;;;;;;;20.74;28.90;102658.78;5054526;28;20040;-65
2022/12/17 16:33:38;;;;;;;8.10;5.72;;;;;;;20.78;28.86;102657.50;5069447;28;20035;-70
2022/12/17 16:36:06;;;;;;;8.65;5.60;;;;;;;21.27;28.16;102660.91;5074321;28;20028;-66
2022/12/17 16:38:32;;;;;;;7.28;5.57;;;;;;;21.80;27.22;102644.34;5069707;28;20149;-67
2022/12/17 16:41:00;;;;;;;7.88;5.75;;;;;;;22.00;27.21;102656.50;5075287;28;20048;-69
2022/12/17 16:43:26;;;;;;;8.40;5.50;;;;;;;21.83;27.18;102654.66;5066862;28;20985;-68
2022/12/17 16:45:53;;;;;;;7.82;5.43;;;;;;;21.65;27.61;102659.91;5062036;28;20043;-67
2022/12/17 16:48:20;;;;;;;7.25;5.65;;;;;;;21.56;27.75;102658.16;5076500;28;20036;-66
2022/12/17 16:50:47;;;;;;;7.20;4.85;;;;;;;21.39;27.92;102657.94;5069976;28;20032;-69
2022/12/17 16:53:13;;;;;;;7.65;5.60;;;;;;;21.32;28.22;102653.34;5069312;28;20035;-69
2022/12/17 16:55:46;;;;;;;6.47;5.32;;;;;;;21.24;28.51;102651.44;5066766;28;20055;-70
2022/12/17 16:58:13;;;;;;;9.23;5.85;;;;;;;21.10;28.69;102646.56;5070308;28;20071;-69
2022/12/17 17:00:39;;;;;;;7.88;5.35;;;;;;;21.02;28.64;102651.78;5052633;28;20059;-69
2022/12/17 17:03:06;;;;;;;6.05;5.05;;;;;;;20.98;28.76;102655.66;5065635;28;20052;-70
2022/12/17 17:05:36;;;;;;;8.70;5.93;;;;;;;20.84;28.58;102656.13;5069634;28;20779;-67
2022/12/17 17:08:02;;;;;;;6.88;4.88;;;;;;;20.83;28.89;102660.59;5071780;28;20035;-68
2022/12/17 17:10:29;;;;;;;8.70;5.75;;;;;;;20.86;29.00;102648.88;5070488;28;20040;-67
2022/12/17 17:12:55;;;;;;;7.40;4.97;;;;;;;21.04;28.75;102658.59;5067150;28;20109;-66
2022/12/17 17:15:24;;;;;;;7.72;5.15;;;;;;;21.33;28.46;102655.03;5051885;28;20067;-67
2022/12/17 17:17:50;;;;;;;7.00;5.27;;;;;;;21.77;27.74;102653.44;5063341;28;20685;-66
2022/12/17 17:20:15;;;;;;;6.80;4.82;;;;;;;21.80;27.50;102671.69;5066217;28;20485;-67
2022/12/17 17:22:41;;;;;;;6.68;5.07;;;;;;;21.65;27.93;102681.94;5069224;28;20024;-67
2022/12/17 17:25:07;;;;;;;7.32;5.70;;;;;;;21.55;27.90;102673.22;5069957;28;20044;-68
2022/12/17 17:27:33;;;;;;;6.63;5.32;;;;;;;21.44;28.28;102676.06;5074699;28;20047;-69
2022/12/17 17:29:58;;;;;;;7.82;5.13;;;;;;;21.30;28.46;102664.09;5044167;28;20106;-68
2022/12/17 17:32:24;;;;;;;7.25;5.00;;;;;;;21.15;28.56;102657.56;5073241;28;20052;-67
2022/12/17 17:34:50;;;;;;;6.90;4.70;;;;;;;21.07;28.71;102671.53;5077303;28;20040;-67
2022/12/17 17:37:15;;;;;;;6.43;4.63;;;;;;;21.17;28.34;102674.16;5079110;28;20115;-67
2022/12/17 17:39:41;;;;;;;6.45;4.65;;;;;;;21.15;28.49;102664.69;5076682;28;21682;-68
2022/12/17 17:42:07;;;;;;;6.72;5.10;;;;;;;21.07;28.59;102676.00;5072785;28;20028;-68
2022/12/17 17:44:32;;;;;;;8.07;4.90;;;;;;;20.97;28.93;102680.47;5070925;28;20036;-67
2022/12/17 17:46:59;;;;;;;6.82;4.82;;;;;;;20.90;29.11;102679.38;5061269;28;20386;-72
2022/12/17 17:49:24;;;;;;;6.47;4.75;;;;;;;20.89;29.05;102675.06;5074361;28;20055;-72
2022/12/17 17:51:50;;;;;;;6.60;5.03;;;;;;;21.03;28.64;102670.16;5071451;28;20502;-72
2022/12/17 17:54:15;;;;;;;6.68;4.97;;;;;;;21.45;28.10;102668.94;5071554;28;20044;-73
2022/12/17 17:56:42;;;;;;;6.57;4.72;;;;;;;21.94;27.67;102668.53;5068941;28;20507;-72
2022/12/17 17:59:11;;;;;;;6.45;4.78;;;;;;;22.07;27.33;102673.50;5071098;28;20364;-71
2022/12/17 18:01:42;;;;;;;7.25;4.50;;;;;;;21.87;27.57;102670.09;5059054;28;20796;-72
2022/12/17 18:04:14;;;;;;;7.13;4.78;;;;;;;21.75;27.72;102686.38;5066412;28;20490;-73
2022/12/17 18:06:42;;;;;;;7.35;5.35;;;;;;;21.65;27.77;102689.06;5080237;28;20043;-73
2022/12/17 18:09:08;;;;;;;6.00;4.30;;;;;;;21.49;28.29;102681.75;5077886;28;20116;-72
2022/12/17 18:11:36;;;;;;;6.55;4.30;;;;;;;21.36;28.20;102679.44;5072804;28;20435;-71
2022/12/17 18:14:04;;;;;;;5.90;4.22;;;;;;;21.26;28.44;102678.63;5074358;28;20531;-75
2022/12/17 18:16:31;;;;;;;6.78;4.65;;;;;;;21.19;28.56;102685.47;5063268;28;20044;-74
2022/12/17 18:19:15;;;;;;;6.00;4.22;;;;;;;21.06;28.67;102693.72;5072269;28;20035;-74
2022/12/17 18:21:40;;;;;;;6.53;4.50;;;;;;;21.00;28.73;102706.66;5075413;28;20565;-75
2022/12/17 18:24:11;;;;;;;6.15;4.70;;;;;;;20.96;28.98;102708.78;5071276;28;20101;-77
2022/12/17 18:26:41;;;;;;;6.53;4.70;;;;;;;20.89;29.02;102702.38;5074111;28;20131;-77
2022/12/17 18:29:20;;;;;;;;;;;;;;;20.87;29.12;102711.44;5076765;28;20121;-77
2022/12/17 18:31:46;;;;;;;7.68;5.05;;;;;;;20.81;28.85;102718.97;5052164;28;19920;-78
2022/12/17 18:34:13;;;;;;;6.22;5.18;;;;;;;20.81;28.95;102720.78;5076857;28;20036;-76
2022/12/17 18:36:41;;;;;;;6.10;4.47;;;;;;;21.30;28.44;102713.63;5074343;28;20044;-76
2022/12/17 18:39:18;;;;;;;7.18;5.15;;;;;;;21.40;28.07;102714.44;5079457;28;20047;-78
2022/12/17 18:44:31;;;;;;;6.97;5.22;;;;;;;21.11;28.57;102707.34;5073020;28;20503;-75
2022/12/17 18:46:57;;;;;;;6.35;4.50;;;;;;;21.06;28.79;102706.97;5068122;28;20050;-79
2022/12/17 18:49:25;;;;;;;6.80;4.63;;;;;;;20.99;28.87;102705.84;5078579;28;20394;-76
2022/12/17 18:51:52;;;;;;;6.78;4.82;;;;;;;20.96;28.80;102705.28;5077921;28;21029;-73
2022/12/17 18:54:23;;;;;;;5.82;4.57;;;;;;;20.97;28.70;102705.16;5077144;28;20075;-74
2022/12/17 18:56:49;;;;;;;7.55;5.20;;;;;;;20.96;28.95;102707.94;5073964;28;20065;-73
2022/12/17 18:59:20;;;;;;;7.13;5.20;;;;;;;20.93;28.85;102718.81;5079062;28;20028;-74
2022/12/17 19:01:46;;;;;;;7.30;5.18;;;;;;;20.89;29.18;102725.38;5062057;28;20059;-75
2022/12/17 19:04:14;;;;;;;6.63;5.28;;;;;;;20.84;29.15;102723.16;5077262;28;20383;-76
2022/12/17 19:06:42;;;;;;;8.00;5.25;;;;;;;20.77;29.07;102730.81;5079789;28;20039;-77
2022/12/17 19:09:16;;;;;;;7.75;5.18;;;;;;;20.75;29.23;102730.13;5079161;28;20498;-77
2022/12/17 19:11:41;;;;;;;7.60;5.28;;;;;;;20.96;28.96;102727.31;5076677;28;20032;-77
2022/12/17 19:14:07;;;;;;;6.45;4.72;;;;;;;21.39;27.98;102718.06;5076017;28;20039;-76
2022/12/17 19:16:32;;;;;;;5.70;4.50;;;;;;;21.80;27.58;102723.91;5066633;28;20036;-77
2022/12/17 19:19:03;;;;;;;5.57;4.35;;;;;;;22.04;27.54;102729.47;5073991;28;20051;-76
2022/12/17 19:21:30;;;;;;;6.72;4.85;;;;;;;21.94;27.53;102729.56;5073615;28;20040;-77
2022/12/17 19:23:58;;;;;;;6.63;5.22;;;;;;;21.82;27.50;102727.22;5070643;28;20046;-76
2022/12/17 19:26:25;;;;;;;7.13;5.28;;;;;;;21.67;28.01;102729.53;5073527;28;20800;-74
2022/12/17 19:28:52;;;;;;;5.55;4.55;;;;;;;21.55;28.23;102739.50;5072737;28;20050;-74
2022/12/17 19:31:19;;;;;;;6.53;4.75;;;;;;;21.46;28.21;102742.16;5053484;28;20028;-76
2022/12/17 19:33:45;;;;;;;6.15;4.78;;;;;;;21.37;28.19;102747.38;5071245;28;20112;-76
2022/12/17 19:36:17;;;;;;;6.63;5.28;;;;;;;21.22;28.41;102739.97;5076901;28;20508;-77
2022/12/17 19:38:43;;;;;;;6.15;4.40;;;;;;;21.14;28.42;102745.97;5073295;28;20028;-76
2022/12/17 19:41:15;;;;;;;6.45;4.80;;;;;;;21.05;28.79;102745.03;5076676;28;20432;-75
2022/12/17 19:43:41;;;;;;;7.07;5.60;;;;;;;21.00;28.89;102755.19;5073291;28;20393;-76
2022/12/17 19:46:13;;;;;;;7.35;5.63;;;;;;;20.91;28.95;102756.03;5075669;28;20040;-75
2022/12/17 19:48:40;;;;;;;6.40;4.95;;;;;;;20.90;28.91;102757.03;5062695;28;20136;-76
2022/12/17 19:51:07;;;;;;;6.45;4.82;;;;;;;20.90;28.88;102757.03;5076219;28;20086;-76
2022/12/17 19:53:34;;;;;;;5.88;4.82;;;;;;;20.93;29.07;102771.78;5074388;28;20036;-76
2022/12/17 19:56:27;;;;;;;6.57;5.00;;;;;;;21.00;28.62;102760.47;5074867;28;20047;-76
2022/12/17 19:58:55;;;;;;;5.50;4.25;;;;;;;21.16;28.57;102757.25;5068071;28;20556;-77
2022/12/17 20:01:29;;;;;;;6.15;5.15;;;;;;;21.09;28.63;102754.34;5065221;28;20040;-76
2022/12/17 20:03:56;;;;;;;6.13;5.07;;;;;;;21.03;28.96;102751.44;5070617;28;20039;-76
2022/12/17 20:06:24;;;;;;;7.43;5.10;;;;;;;20.96;28.88;102751.16;5074868;28;20143;-76
2022/12/17 20:08:51;;;;;;;7.03;5.25;;;;;;;20.96;29.01;102763.56;5076507;28;20135;-76
2022/12/17 20:11:32;;;;;;;6.75;5.32;;;;;;;20.89;28.82;102760.66;5070054;28;21506;-75
2022/12/17 20:14:01;;;;;;;6.53;5.40;;;;;;;20.91;29.15;102766.63;5066043;28;20085;-76
2022/12/17 20:16:27;;;;;;;6.55;4.93;;;;;;;20.85;28.98;102767.19;5059507;28;20024;-77
2022/12/17 20:18:53;;;;;;;6.40;5.13;;;;;;;20.83;29.06;102776.28;5068224;28;20043;-76
2022/12/17 20:21:18;;;;;;;6.55;4.70;;;;;;;20.80;29.07;102780.84;5066408;28;20051;-78
2022/12/17 20:23:50;;;;;;;5.80;4.63;;;;;;;20.79;29.00;102770.38;5067477;28;20470;-77
2022/12/17 20:26:16;;;;;;;7.60;5.22;;;;;;;20.75;29.16;102772.47;5072464;28;20197;-76
2022/12/17 20:28:42;;;;;;;7.13;4.97;;;;;;;20.70;29.02;102758.84;5074777;28;20043;-75
2022/12/17 20:31:08;;;;;;;6.65;4.82;;;;;;;20.95;28.96;102761.88;5071554;28;20036;-77
2022/12/17 20:33:34;;;;;;;5.75;4.60;;;;;;;21.34;28.25;102766.19;5050922;28;20055;-76
2022/12/17 20:36:13;;;;;;;6.10;4.90;;;;;;;21.67;27.64;102746.28;5076409;28;20047;-75
2022/12/17 20:38:42;;;;;;;6.00;4.70;;;;;;;21.92;27.30;102765.16;5068254;28;20051;-74
2022/12/17 20:41:12;;;;;;;6.85;5.35;;;;;;;21.81;27.49;102768.84;5069694;28;20482;-75
2022/12/17 20:43:38;;;;;;;6.55;5.03;;;;;;;21.71;27.59;102763.56;5067830;28;20040;-74
2022/12/17 20:46:04;;;;;;;6.70;4.97;;;;;;;21.59;27.78;102766.56;5075782;28;20032;-74
2022/12/17 20:48:29;;;;;;;6.03;5.00;;;;;;;21.46;28.36;102768.69;5061528;28;20418;-74
2022/12/17 20:50:55;;;;;;;6.18;4.43;;;;;;;21.36;28.51;102768.69;5077905;28;20055;-73
2022/12/17 20:53:20;;;;;;;6.13;4.60;;;;;;;21.26;28.59;102768.72;5070702;28;20628;-75
2022/12/17 20:55:46;;;;;;;6.60;4.90;;;;;;;21.19;28.49;102764.13;5075227;28;20038;-73
2022/12/17 20:58:12;;;;;;;7.35;5.05;;;;;;;21.09;28.67;102767.59;5068126;28;20564;-74
2022/12/17 21:00:39;;;;;;;7.25;5.35;;;;;;;21.02;28.70;102761.19;5073276;28;20039;-75
2022/12/17 21:03:05;;;;;;;7.57;5.10;;;;;;;20.96;29.16;102767.03;5060374;28;20410;-75
2022/12/17 21:05:34;;;;;;;7.25;5.03;;;;;;;20.95;28.99;102761.88;5069630;28;20039;-74
2022/12/17 21:07:59;;;;;;;7.15;5.50;;;;;;;20.89;29.07;102768.59;5065197;28;20050;-74
2022/12/17 21:10:25;;;;;;;8.68;6.45;;;;;;;20.95;28.54;102773.31;5070361;28;20040;-73
2022/12/17 21:15:39;;;;;;;9.85;7.03;;;;;;;21.11;28.13;102772.75;5069272;28;20161;-70
2022/12/17 21:18:04;;;;;;;9.88;7.63;;;;;;;21.12;28.04;102779.72;5071976;28;20531;-69
2022/12/17 21:20:30;;;;;;;10.00;7.72;;;;;;;21.15;28.05;102778.59;5068127;28;20055;-70
2022/12/17 21:22:55;;;;;;;10.25;7.55;;;;;;;21.18;27.59;102783.59;5072757;28;20059;-73
2022/12/17 21:25:21;;;;;;;10.45;7.50;;;;;;;21.16;27.88;102782.91;5074451;28;20036;-72
2022/12/17 21:27:46;;;;;;;11.60;8.18;;;;;;;21.12;27.56;102790.31;5075431;28;20143;-71
2022/12/17 21:30:12;;;;;;;12.38;7.50;;;;;;;21.11;27.79;102794.78;5049145;28;20047;-63
2022/12/17 21:32:38;;;;;;;9.23;6.85;;;;;;;21.08;28.33;102794.22;5071289;28;20073;-64
2022/12/17 21:35:03;;;;;;;10.13;6.72;;;;;;;21.04;28.69;102798.13;5071285;28;20043;-62
2022/12/17 21:37:29;;;;;;;9.35;6.55;;;;;;;20.99;28.65;102795.88;5072511;28;20771;-63
2022/12/17 21:39:54;;;;;;;9.40;6.22;;;;;;;20.94;28.77;102802.59;5074704;28;20425;-63
2022/12/17 21:45:04;;;;;;;9.05;6.25;;;;;;;20.88;28.85;102816.41;5044273;28;20052;-63
2022/12/17 21:47:30;;;;;;;11.10;7.13;;;;;;;20.91;28.79;102824.91;5078780;28;20040;-63
2022/12/17 21:49:55;;;;;;;8.43;6.57;;;;;;;20.90;28.84;102809.97;5071985;28;20071;-63
2022/12/17 21:52:21;;;;;;;8.38;6.30;;;;;;;21.00;28.61;102815.25;5072135;28;20036;-63
2022/12/17 21:54:46;;;;;;;9.55;6.57;;;;;;;21.11;28.52;102823.91;5072855;28;20063;-62
2022/12/17 21:57:12;;;;;;;8.98;6.13;;;;;;;21.24;28.48;102820.16;5068667;28;20051;-62
2022/12/17 21:59:37;;;;;;;8.68;6.95;;;;;;;21.21;28.33;102807.19;5055219;28;20043;-63
2022/12/17 22:02:03;;;;;;;9.32;6.68;;;;;;;21.19;28.48;102803.84;5056411;28;20042;-65
2022/12/17 22:04:28;;;;;;;9.02;6.75;;;;;;;21.13;28.67;102792.81;5065521;28;20040;-66
2022/12/17 22:06:54;;;;;;;8.98;6.88;;;;;;;21.12;28.77;102801.75;5067568;28;20493;-65
2022/12/17 22:09:20;;;;;;;9.15;6.97;;;;;;;21.10;28.54;102794.91;5060002;28;20130;-65
2022/12/17 22:11:46;;;;;;;8.93;6.72;;;;;;;21.06;28.58;102799.66;5061980;28;20032;-65
2022/12/17 22:14:12;;;;;;;8.55;6.13;;;;;;;21.05;28.69;102813.06;5065165;28;20075;-65
2022/12/17 22:16:45;;;;;;;10.43;6.88;;;;;;;21.01;28.61;102812.50;5043243;28;20123;-65
2022/12/17 22:19:15;;;;;;;8.70;6.15;;;;;;;21.00;28.89;102824.03;5071144;28;20040;-65
2022/12/17 22:21:43;;;;;;;9.35;6.88;;;;;;;21.00;28.70;102828.50;5070694;28;20040;-65
2022/12/17 22:24:18;;;;;;;10.02;7.30;;;;;;;20.98;28.90;102833.13;5074579;28;20024;-65
2022/12/17 22:26:44;;;;;;;8.77;7.25;;;;;;;20.93;28.92;102838.84;5072030;28;20098;-65
2022/12/17 22:29:10;;;;;;;9.70;6.82;;;;;;;20.90;28.81;102833.81;5073060;28;20067;-65
2022/12/17 22:34:20;;;;;;;9.57;6.88;;;;;;;20.85;28.91;102841.34;5057802;28;20152;-64
2022/12/17 22:36:45;;;;;;;9.52;6.40;;;;;;;20.87;28.93;102831.44;5072187;28;20531;-65
2022/12/17 22:39:13;;;;;;;8.52;6.53;;;;;;;20.84;28.78;102841.50;5068862;28;20047;-65
2022/12/17 22:44:23;;;;;;;8.55;6.97;;;;;;;20.81;28.45;102853.16;5074822;28;20525;-63
2022/12/17 22:46:49;;;;;;;10.27;7.05;;;;;;;20.72;28.99;102851.34;5077416;28;20255;-63
2022/12/17 22:49:15;;;;;;;9.45;6.82;;;;;;;20.72;29.04;102859.28;5077457;28;20052;-63
2022/12/17 22:51:41;;;;;;;9.27;6.55;;;;;;;20.69;28.96;102849.81;5082219;28;20036;-63
2022/12/17 22:54:08;;;;;;;9.85;6.78;;;;;;;20.69;29.04;102857.75;5079569;28;20040;-63
2022/12/17 22:56:35;;;;;;;9.48;6.90;;;;;;;20.59;29.18;102856.06;5073776;28;20632;-64
2022/12/17 22:59:01;;;;;;;9.82;7.18;;;;;;;20.65;29.11;102843.13;5074102;28;20105;-63
2022/12/17 23:01:27;;;;;;;11.60;7.63;;;;;;;20.55;29.26;102849.38;5073930;28;20031;-63
2022/12/17 23:03:54;;;;;;;10.07;7.22;;;;;;;20.51;29.15;102847.00;5073562;28;20140;-63
2022/12/17 23:06:20;;;;;;;9.85;6.70;;;;;;;20.65;29.09;102839.66;5078025;28;20062;-63
2022/12/17 23:08:45;;;;;;;9.82;6.38;;;;;;;20.50;29.15;102840.03;5076162;28;20744;-63
2022/12/17 23:11:17;;;;;;;9.98;7.00;;;;;;;20.48;29.13;102830.56;5072937;28;20738;-63
2022/12/17 23:13:43;;;;;;;9.68;6.88;;;;;;;20.48;29.26;102830.56;5075852;28;20090;-63
2022/12/17 23:16:12;;;;;;;8.52;6.50;;;;;;;20.41;29.26;102832.88;5075549;28;20036;-64
2022/12/17 23:18:41;;;;;;;9.93;6.90;;;;;;;20.41;29.37;102837.34;5078487;28;20040;-63
2022/12/17 23:21:14;;;;;;;9.35;7.03;;;;;;;20.38;29.46;102830.47;5076973;28;20032;-63
2022/12/17 23:23:40;;;;;;;8.55;7.22;;;;;;;20.39;29.12;102834.81;5082552;28;20055;-63
2022/12/17 23:26:07;;;;;;;10.48;7.18;;;;;;;20.30;29.50;102826.84;5082199;28;20047;-63
2022/12/17 23:28:33;;;;;;;9.45;7.00;;;;;;;20.27;29.44;102827.94;5078937;28;20859;-63
2022/12/17 23:31:05;;;;;;;9.15;6.45;;;;;;;20.32;29.20;102830.19;5076350;28;20204;-64
2022/12/17 23:33:31;;;;;;;8.70;6.53;;;;;;;20.34;29.26;102838.84;5073270;28;20035;-63
2022/12/17 23:36:05;;;;;;;8.90;6.70;;;;;;;20.27;29.46;102841.16;5076611;28;20035;-64
2022/12/17 23:38:32;;;;;;;8.15;6.55;;;;;;;20.30;29.28;102843.56;5077376;28;20189;-63
2022/12/17 23:41:16;;;;;;;11.18;7.15;;;;;;;20.35;29.19;102840.50;5067935;28;20043;-63
2022/12/17 23:43:41;;;;;;;8.82;6.63;;;;;;;20.18;29.44;102842.81;5071054;28;20705;-63
2022/12/17 23:46:08;;;;;;;10.18;7.32;;;;;;;20.25;29.33;102847.56;5073363;28;20044;-64
2022/12/17 23:48:36;;;;;;;10.10;7.18;;;;;;;20.17;29.55;102851.72;5072156;28;20534;-64
2022/12/17 23:51:03;;;;;;;9.95;6.82;;;;;;;20.24;29.22;102854.66;5075325;28;20666;-63
2022/12/17 23:53:30;;;;;;;8.77;6.63;;;;;;;20.23;29.39;102851.19;5077805;28;20032;-62
2022/12/17 23:56:05;;;;;;;9.48;6.88;;;;;;;20.15;29.67;102842.25;5077368;28;20028;-64
2022/12/17 23:58:32;;;;;;;8.60;5.97;;;;;;;20.12;29.57;102848.66;5074863;28;20089;-64
